createdAt,value
2023-05-21T00:00:15.954Z,87.70
2023-05-21T00:02:44.046Z,88.31
2023-05-21T00:05:14.927Z,88.11
2023-05-21T00:07:43.198Z,88.77
2023-05-21T00:10:12.036Z,88.93
2023-05-21T00:12:41.930Z,88.98
2023-05-21T00:15:11.000Z,89.52
2023-05-21T00:17:40.087Z,88.95
2023-05-21T00:20:10.088Z,89.44
2023-05-21T00:22:38.083Z,90.05
2023-05-21T00:25:06.653Z,89.74
2023-05-21T00:27:34.617Z,90.49
2023-05-21T00:30:04.782Z,90.02
2023-05-21T00:32:32.721Z,89.49
2023-05-21T00:35:00.693Z,88.61
2023-05-21T00:37:29.902Z,87.81
2023-05-21T00:39:58.475Z,87.60
2023-05-21T00:42:27.448Z,87.58
2023-05-21T00:44:55.548Z,87.10
2023-05-21T00:47:26.987Z,87.13
2023-05-21T00:49:55.704Z,86.95
2023-05-21T00:52:26.814Z,86.80
2023-05-21T00:54:55.351Z,87.10
2023-05-21T00:57:24.085Z,86.03
2023-05-21T00:59:53.512Z,86.91
2023-05-21T01:02:24.388Z,86.78
2023-05-21T01:04:56.286Z,86.75
2023-05-21T01:07:24.524Z,87.26
2023-05-21T01:09:54.245Z,86.92
2023-05-21T01:12:24.535Z,87.70
2023-05-21T01:14:53.403Z,87.17
2023-05-21T01:17:24.910Z,86.78
2023-05-21T01:19:54.869Z,87.23
2023-05-21T01:22:25.175Z,87.67
2023-05-21T01:24:55.875Z,88.37
2023-05-21T01:27:23.929Z,88.67
2023-05-21T01:29:51.951Z,88.83
2023-05-21T01:32:28.420Z,89.33
2023-05-21T01:35:02.059Z,89.65
2023-05-21T01:37:36.449Z,90.47
2023-05-21T01:40:11.920Z,89.50
2023-05-21T01:42:44.384Z,89.71
2023-05-21T01:45:15.872Z,90.00
2023-05-21T01:47:48.341Z,89.56
2023-05-21T01:50:16.894Z,89.46
2023-05-21T01:52:51.102Z,89.24
2023-05-21T01:55:24.825Z,89.06
2023-05-21T01:57:55.768Z,89.05
2023-05-21T02:00:25.039Z,88.34
2023-05-21T02:02:53.998Z,88.02
2023-05-21T02:05:21.979Z,87.74
2023-05-21T02:07:52.059Z,87.20
2023-05-21T02:10:21.519Z,86.94
2023-05-21T02:12:49.531Z,86.63
2023-05-21T02:15:18.257Z,86.63
2023-05-21T02:17:46.502Z,86.64
2023-05-21T02:20:15.013Z,85.72
2023-05-21T02:22:46.094Z,85.31
2023-05-21T02:25:15.909Z,84.90
2023-05-21T02:27:46.673Z,85.19
2023-05-21T02:30:16.635Z,84.84
2023-05-21T02:32:45.181Z,85.72
2023-05-21T02:35:14.310Z,85.61
2023-05-21T02:37:44.189Z,85.67
2023-05-21T02:40:13.582Z,85.48
2023-05-21T02:42:42.142Z,85.42
2023-05-21T02:45:13.308Z,85.29
2023-05-21T02:47:41.500Z,84.87
2023-05-21T02:50:10.525Z,84.40
2023-05-21T02:52:38.475Z,84.74
2023-05-21T02:55:07.330Z,84.21
2023-05-21T02:57:35.347Z,83.75
2023-05-21T03:00:05.176Z,83.31
2023-05-21T03:02:34.659Z,83.97
2023-05-21T03:05:03.012Z,84.37
2023-05-21T03:07:30.989Z,84.42
2023-05-21T03:09:59.429Z,84.36
2023-05-21T03:12:27.425Z,84.26
2023-05-21T03:14:56.471Z,85.53
2023-05-21T03:17:24.502Z,85.13
2023-05-21T03:19:54.811Z,85.97
2023-05-21T03:22:22.817Z,85.79
2023-05-21T03:24:50.890Z,86.91
2023-05-21T03:27:18.897Z,87.48
2023-05-21T03:29:46.882Z,88.44
2023-05-21T03:32:15.127Z,87.22
2023-05-21T03:34:43.227Z,87.05
2023-05-21T03:37:12.541Z,87.65
2023-05-21T03:39:40.576Z,87.48
2023-05-21T03:42:08.510Z,87.77
2023-05-21T03:44:36.504Z,87.19
2023-05-21T03:47:04.444Z,86.65
2023-05-21T03:49:32.443Z,87.00
2023-05-21T03:52:00.376Z,86.95
2023-05-21T03:54:29.695Z,86.98
2023-05-21T03:56:57.598Z,86.14
2023-05-21T03:59:25.495Z,85.79
2023-05-21T04:01:53.435Z,84.72
2023-05-21T04:04:21.411Z,84.90
2023-05-21T04:06:49.769Z,85.87
2023-05-21T04:09:17.733Z,87.39
2023-05-21T04:11:47.545Z,86.67
2023-05-21T04:14:15.667Z,86.25
2023-05-21T04:16:44.932Z,85.76
2023-05-21T04:19:12.961Z,84.61
2023-05-21T04:21:40.984Z,85.10
2023-05-21T04:24:08.996Z,85.04
2023-05-21T04:26:37.080Z,85.22
2023-05-21T04:29:06.419Z,85.91
2023-05-21T04:31:34.389Z,85.88
2023-05-21T04:34:02.318Z,86.28
2023-05-21T04:36:30.388Z,86.27
2023-05-21T04:38:58.398Z,86.69
2023-05-21T04:41:26.323Z,86.96
2023-05-21T04:43:55.377Z,86.66
2023-05-21T04:46:25.837Z,86.23
2023-05-21T04:48:55.156Z,85.46
2023-05-21T04:51:24.790Z,86.20
2023-05-21T04:53:54.027Z,85.91
2023-05-21T04:56:23.018Z,85.68
2023-05-21T04:58:51.198Z,85.92
2023-05-21T05:01:19.936Z,86.30
2023-05-21T05:03:49.411Z,85.88
2023-05-21T05:06:18.008Z,85.08
2023-05-21T05:08:47.318Z,84.44
2023-05-21T05:11:15.357Z,84.65
2023-05-21T05:13:43.302Z,85.37
2023-05-21T05:16:13.055Z,85.22
2023-05-21T05:18:41.338Z,84.54
2023-05-21T05:21:10.743Z,84.58
2023-05-21T05:23:38.781Z,84.82
2023-05-21T05:26:06.820Z,85.10
2023-05-21T05:28:34.809Z,84.87
2023-05-21T05:31:02.816Z,85.33
2023-05-21T05:33:30.958Z,84.52
2023-05-21T05:35:58.985Z,84.83
2023-05-21T05:38:28.543Z,85.36
2023-05-21T05:40:56.458Z,85.74
2023-05-21T05:43:26.415Z,86.80
2023-05-21T05:45:54.452Z,88.92
2023-05-21T05:48:22.502Z,89.90
2023-05-21T05:50:50.490Z,89.82
2023-05-21T05:53:18.444Z,91.16
2023-05-21T05:55:47.831Z,92.51
2023-05-21T05:58:15.855Z,92.40
2023-05-21T06:00:43.806Z,91.18
2023-05-21T06:03:12.291Z,90.11
2023-05-21T06:05:40.693Z,89.67
2023-05-21T06:08:08.952Z,89.86
2023-05-21T06:10:36.917Z,89.29
2023-05-21T06:13:06.359Z,88.92
2023-05-21T06:15:34.910Z,88.68
2023-05-21T06:18:03.066Z,87.65
2023-05-21T06:20:31.106Z,87.61
2023-05-21T06:22:59.026Z,86.95
2023-05-21T06:25:27.147Z,86.75
2023-05-21T06:27:55.130Z,86.38
2023-05-21T06:30:24.479Z,85.72
2023-05-21T06:32:52.465Z,85.68
2023-05-21T06:35:20.552Z,86.45
2023-05-21T06:37:48.796Z,85.99
2023-05-21T06:40:16.993Z,86.13
2023-05-21T06:42:45.056Z,86.31
2023-05-21T06:45:13.707Z,85.53
2023-05-21T06:47:43.029Z,84.77
2023-05-21T06:50:11.528Z,84.33
2023-05-21T06:52:39.529Z,84.02
2023-05-21T06:55:08.209Z,82.31
2023-05-21T06:57:36.148Z,80.85
2023-05-21T07:00:04.258Z,81.71
2023-05-21T07:02:32.298Z,81.44
2023-05-21T07:05:01.835Z,80.82
2023-05-21T07:07:29.865Z,80.34
2023-05-21T07:09:57.865Z,79.35
2023-05-21T07:12:25.789Z,79.59
2023-05-21T07:14:53.760Z,78.71
2023-05-21T07:17:21.844Z,79.24
2023-05-21T07:19:49.851Z,79.02
2023-05-21T07:22:19.154Z,79.27
2023-05-21T07:24:47.151Z,79.42
2023-05-21T07:27:25.223Z,78.87
2023-05-21T07:29:53.928Z,78.89
2023-05-21T07:32:22.001Z,78.48
2023-05-21T07:34:50.555Z,77.54
2023-05-21T07:37:21.117Z,77.05
2023-05-21T07:39:49.243Z,76.93
2023-05-21T07:42:17.164Z,76.32
2023-05-21T07:44:45.136Z,74.38
2023-05-21T07:47:13.116Z,73.63
2023-05-21T07:49:41.141Z,72.32
2023-05-21T07:52:09.126Z,71.31
2023-05-21T07:54:38.443Z,70.98
2023-05-21T07:57:06.927Z,71.61
2023-05-21T07:59:34.936Z,70.57
2023-05-21T08:02:02.852Z,70.14
2023-05-21T08:04:30.848Z,68.24
2023-05-21T08:06:58.876Z,67.33
2023-05-21T08:09:26.907Z,66.29
2023-05-21T08:11:56.179Z,65.15
2023-05-21T08:14:24.089Z,63.13
2023-05-21T08:16:52.051Z,62.38
2023-05-21T08:19:20.115Z,61.53
2023-05-21T08:21:49.694Z,60.71
2023-05-21T08:24:19.364Z,59.89
2023-05-21T08:26:49.577Z,59.47
2023-05-21T08:29:19.117Z,59.19
2023-05-21T08:31:47.048Z,59.79
2023-05-21T08:34:15.035Z,59.83
2023-05-21T08:36:43.346Z,58.89
2023-05-21T08:39:11.345Z,60.47
2023-05-21T08:41:41.639Z,59.89
2023-05-21T08:44:12.837Z,60.05
2023-05-21T08:46:43.352Z,58.40
2023-05-21T08:49:14.325Z,54.96
2023-05-21T08:51:43.066Z,55.72
2023-05-21T08:54:11.633Z,56.33
2023-05-21T08:56:45.657Z,55.91
2023-05-21T08:59:14.093Z,56.28
2023-05-21T09:01:44.446Z,56.71
2023-05-21T09:04:21.228Z,56.87
2023-05-21T09:06:50.058Z,56.37
2023-05-21T09:09:26.247Z,54.87
2023-05-21T09:11:54.492Z,55.95
2023-05-21T09:14:24.388Z,55.99
2023-05-21T09:16:53.831Z,54.38
2023-05-21T09:19:22.155Z,53.56
2023-05-21T09:21:52.643Z,52.96
2023-05-21T09:24:22.777Z,53.20
2023-05-21T09:26:51.347Z,52.88
2023-05-21T09:29:19.761Z,52.25
2023-05-21T09:31:47.933Z,51.30
2023-05-21T09:34:17.472Z,50.65
2023-05-21T09:36:45.380Z,50.22
2023-05-21T09:39:16.592Z,49.99
2023-05-21T09:41:45.017Z,49.54
2023-05-21T09:44:13.627Z,50.26
2023-05-21T09:46:42.616Z,49.99
2023-05-21T09:49:24.200Z,49.91
2023-05-21T09:51:55.862Z,49.93
2023-05-21T09:54:24.450Z,50.42
2023-05-21T09:56:53.476Z,49.73
2023-05-21T09:59:22.494Z,49.91
2023-05-21T10:01:52.613Z,50.35
2023-05-21T10:04:24.348Z,50.55
2023-05-21T10:06:53.839Z,50.84
2023-05-21T10:09:22.441Z,50.65
2023-05-21T10:11:53.335Z,50.05
2023-05-21T10:14:22.880Z,51.24
2023-05-21T10:16:53.700Z,52.05
2023-05-21T10:19:28.193Z,52.39
2023-05-21T10:21:57.286Z,52.52
2023-05-21T10:24:26.836Z,53.01
2023-05-21T10:26:55.323Z,52.94
2023-05-21T10:29:24.561Z,53.17
2023-05-21T10:31:54.015Z,53.20
2023-05-21T10:34:25.080Z,52.25
2023-05-21T10:36:55.789Z,51.65
2023-05-21T10:39:26.583Z,51.66
2023-05-21T10:42:03.476Z,51.82
2023-05-21T10:44:43.926Z,51.10
2023-05-21T10:47:40.322Z,51.33
2023-05-21T10:50:34.463Z,50.13
2023-05-21T10:53:14.503Z,51.09
2023-05-21T10:56:00.432Z,49.92
2023-05-21T10:58:52.424Z,50.52
2023-05-21T11:01:20.828Z,49.75
2023-05-21T11:03:49.705Z,48.30
2023-05-21T11:06:27.155Z,47.82
2023-05-21T11:08:55.942Z,47.13
2023-05-21T11:11:44.115Z,47.13
2023-05-21T11:14:32.836Z,47.14
2023-05-21T11:17:01.257Z,47.78
2023-05-21T11:19:38.598Z,46.86
2023-05-21T11:22:21.906Z,48.79
2023-05-21T11:24:51.381Z,49.86
2023-05-21T11:27:34.545Z,50.67
2023-05-21T11:30:06.680Z,52.14
2023-05-21T11:32:38.384Z,51.77
2023-05-21T11:35:07.774Z,52.24
2023-05-21T11:37:40.642Z,52.51
2023-05-21T11:40:26.099Z,53.55
2023-05-21T11:42:55.877Z,53.34
2023-05-21T11:45:26.340Z,52.29
2023-05-21T11:47:54.327Z,53.38
2023-05-21T11:50:22.524Z,53.62
2023-05-21T11:52:52.117Z,54.00
2023-05-21T11:55:23.944Z,54.22
2023-05-21T11:57:54.692Z,53.95
2023-05-21T12:00:23.113Z,54.81
2023-05-21T12:02:54.425Z,54.92
2023-05-21T12:05:23.360Z,55.41
2023-05-21T12:07:54.658Z,56.15
2023-05-21T12:10:23.962Z,56.65
2023-05-21T12:12:55.464Z,57.60
2023-05-21T12:15:25.963Z,58.46
2023-05-21T12:17:54.254Z,57.76
2023-05-21T12:20:23.296Z,58.62
2023-05-21T12:22:52.745Z,59.00
2023-05-21T12:25:21.308Z,59.18
2023-05-21T12:27:52.667Z,59.00
2023-05-21T12:30:21.304Z,59.41
2023-05-21T12:32:50.228Z,59.42
2023-05-21T12:35:25.053Z,59.25
2023-05-21T12:37:54.526Z,59.57
2023-05-21T12:40:22.790Z,58.82
2023-05-21T12:42:51.822Z,58.05
2023-05-21T12:45:22.710Z,58.09
2023-05-21T12:47:56.187Z,57.85
2023-05-21T12:50:24.730Z,57.56
2023-05-21T12:52:57.134Z,56.89
2023-05-21T12:55:26.506Z,55.95
2023-05-21T12:58:03.767Z,54.52
2023-05-21T13:00:33.323Z,54.07
2023-05-21T13:03:02.071Z,53.66
2023-05-21T13:05:30.298Z,53.77
2023-05-21T13:07:59.792Z,53.00
2023-05-21T13:10:27.801Z,52.96
2023-05-21T13:12:55.801Z,53.31
2023-05-21T13:15:23.845Z,53.65
2023-05-21T13:17:53.211Z,52.97
2023-05-21T13:20:26.583Z,53.63
2023-05-21T13:22:54.987Z,51.85
2023-05-21T13:25:28.803Z,52.53
2023-05-21T13:27:58.258Z,53.13
2023-05-21T13:30:26.354Z,53.52
2023-05-21T13:32:54.684Z,54.65
2023-05-21T13:35:23.125Z,54.99
2023-05-21T13:37:51.219Z,54.49
2023-05-21T13:40:19.360Z,54.54
2023-05-21T13:42:49.997Z,53.95
2023-05-21T13:45:21.641Z,53.19
2023-05-21T13:47:50.184Z,52.96
2023-05-21T13:50:18.594Z,53.22
2023-05-21T13:52:47.189Z,53.45
2023-05-21T13:55:15.978Z,53.20
2023-05-21T13:57:44.693Z,51.65
2023-05-21T14:00:16.120Z,53.83
2023-05-21T14:02:45.049Z,54.04
2023-05-21T14:05:13.537Z,52.32
2023-05-21T14:07:42.166Z,52.45
2023-05-21T14:10:11.237Z,52.43
2023-05-21T14:12:40.746Z,52.86
2023-05-21T14:15:09.776Z,53.16
2023-05-21T14:17:40.611Z,53.11
2023-05-21T14:20:10.063Z,52.60
2023-05-21T14:22:38.629Z,52.31
2023-05-21T14:25:07.442Z,52.62
2023-05-21T14:27:37.776Z,53.93
2023-05-21T14:30:06.567Z,53.42
2023-05-21T14:32:34.589Z,54.02
2023-05-21T14:35:04.290Z,54.23
2023-05-21T14:37:32.339Z,52.59
2023-05-21T14:40:00.491Z,52.43
2023-05-21T14:42:28.489Z,51.98
2023-05-21T14:44:56.541Z,51.73
2023-05-21T14:47:24.526Z,52.54
2023-05-21T14:49:52.513Z,52.06
2023-05-21T14:52:21.771Z,51.49
2023-05-21T14:54:49.793Z,49.13
2023-05-21T14:57:17.712Z,50.71
2023-05-21T14:59:45.795Z,51.74
2023-05-21T15:02:14.071Z,51.33
2023-05-21T15:04:42.090Z,51.47
2023-05-21T15:07:10.135Z,52.55
2023-05-21T15:09:39.490Z,52.06
2023-05-21T15:12:07.625Z,51.11
2023-05-21T15:14:36.010Z,51.18
2023-05-21T15:17:04.005Z,52.27
2023-05-21T15:19:32.021Z,53.28
2023-05-21T15:21:59.948Z,53.58
2023-05-21T15:24:27.941Z,53.61
2023-05-21T15:26:57.158Z,53.79
2023-05-21T15:29:25.101Z,54.80
2023-05-21T15:31:53.040Z,55.15
2023-05-21T15:34:21.093Z,56.08
2023-05-21T15:36:51.385Z,57.17
2023-05-21T15:39:19.402Z,58.37
2023-05-21T15:41:47.338Z,59.10
2023-05-21T15:44:16.898Z,59.73
2023-05-21T15:46:44.853Z,61.46
2023-05-21T15:49:12.946Z,61.49
2023-05-21T15:51:40.943Z,62.15
2023-05-21T15:54:08.820Z,62.29
2023-05-21T15:56:36.908Z,62.28
2023-05-21T15:59:04.794Z,63.00
2023-05-21T16:01:34.587Z,64.67
2023-05-21T16:04:03.271Z,64.06
2023-05-21T16:06:31.650Z,63.98
2023-05-21T16:08:59.679Z,63.86
2023-05-21T16:11:28.159Z,64.13
2023-05-21T16:13:56.186Z,64.73
2023-05-21T16:16:24.882Z,64.98
2023-05-21T16:18:54.985Z,64.12
2023-05-21T16:21:22.949Z,63.55
2023-05-21T16:23:50.908Z,65.64
2023-05-21T16:26:18.950Z,66.21
2023-05-21T16:28:46.830Z,66.32
2023-05-21T16:31:14.847Z,66.38
2023-05-21T16:33:42.965Z,65.67
2023-05-21T16:36:12.260Z,65.32
2023-05-21T16:38:40.220Z,65.31
2023-05-21T16:41:08.207Z,64.76
2023-05-21T16:43:36.382Z,64.07
2023-05-21T16:46:04.500Z,63.55
2023-05-21T16:48:32.797Z,63.54
2023-05-21T16:51:01.311Z,63.44
2023-05-21T16:53:30.650Z,63.76
2023-05-21T16:55:58.929Z,64.04
2023-05-21T16:58:27.045Z,63.74
2023-05-21T17:00:54.996Z,63.82
2023-05-21T17:03:23.048Z,64.54
2023-05-21T17:05:51.278Z,64.77
2023-05-21T17:08:19.419Z,65.19
2023-05-21T17:10:48.728Z,65.38
2023-05-21T17:13:22.029Z,65.61
2023-05-21T17:15:51.723Z,65.20
2023-05-21T17:18:19.857Z,65.45
2023-05-21T17:20:47.883Z,65.67
2023-05-21T17:23:16.028Z,65.57
2023-05-21T17:25:44.152Z,65.47
2023-05-21T17:28:13.506Z,66.17
2023-05-21T17:30:41.641Z,66.26
2023-05-21T17:33:10.409Z,66.37
2023-05-21T17:35:39.025Z,66.42
2023-05-21T17:38:07.226Z,66.90
2023-05-21T17:40:35.197Z,67.20
2023-05-21T17:43:04.309Z,67.08
2023-05-21T17:45:33.673Z,66.76
2023-05-21T17:48:01.758Z,66.70
2023-05-21T17:50:29.820Z,66.57
2023-05-21T17:52:57.768Z,66.32
2023-05-21T17:55:25.727Z,65.93
2023-05-21T17:57:53.700Z,67.00
2023-05-21T18:00:22.276Z,66.65
2023-05-21T18:02:51.737Z,65.94
2023-05-21T18:05:19.881Z,66.55
2023-05-21T18:07:47.866Z,66.84
2023-05-21T18:10:16.238Z,67.46
2023-05-21T18:12:46.175Z,69.70
2023-05-21T18:15:15.262Z,76.20
2023-05-21T18:17:43.216Z,78.94
2023-05-21T18:20:14.151Z,82.35
2023-05-21T18:22:42.158Z,87.82
2023-05-21T18:25:10.839Z,92.25
2023-05-21T18:27:38.793Z,92.70
2023-05-21T18:30:08.332Z,91.42
2023-05-21T18:32:38.593Z,90.24
2023-05-21T18:35:11.971Z,92.83
2023-05-21T18:37:44.634Z,92.67
2023-05-21T18:40:13.857Z,93.89
2023-05-21T18:42:42.084Z,95.34
2023-05-21T18:45:11.326Z,98.03
2023-05-21T18:47:40.503Z,100.00
2023-05-21T18:50:10.269Z,100.00
2023-05-21T18:52:38.260Z,100.00
2023-05-21T18:55:08.845Z,98.38
2023-05-21T18:57:38.130Z,95.42
2023-05-21T19:00:09.634Z,95.05
2023-05-21T19:02:37.833Z,94.62
2023-05-21T19:05:06.747Z,95.76
2023-05-21T19:07:34.882Z,98.74
2023-05-21T19:10:02.822Z,99.17
2023-05-21T19:12:32.410Z,100.00
2023-05-21T19:15:00.450Z,98.17
2023-05-21T19:17:28.408Z,96.17
2023-05-21T19:19:56.832Z,96.30
2023-05-21T19:22:25.185Z,96.92
2023-05-21T19:24:53.252Z,95.27
2023-05-21T19:27:21.806Z,95.97
2023-05-21T19:29:51.758Z,94.59
2023-05-21T19:32:20.867Z,92.69
2023-05-21T19:34:48.794Z,92.83
2023-05-21T19:37:16.891Z,96.52
2023-05-21T19:39:49.568Z,95.08
2023-05-21T19:42:18.464Z,95.27
2023-05-21T19:44:46.661Z,93.69
2023-05-21T19:47:16.289Z,94.60
2023-05-21T19:49:44.274Z,96.54
2023-05-21T19:52:12.455Z,97.12
2023-05-21T19:54:40.544Z,97.53
2023-05-21T19:57:10.895Z,96.84
2023-05-21T19:59:40.168Z,97.48
2023-05-21T20:02:08.296Z,95.52
2023-05-21T20:04:37.621Z,93.63
2023-05-21T20:07:06.222Z,94.07
2023-05-21T20:09:34.200Z,96.61
2023-05-21T20:12:02.226Z,97.01
2023-05-21T20:14:33.446Z,96.21
2023-05-21T20:17:01.792Z,97.58
2023-05-21T20:19:30.524Z,98.19
2023-05-21T20:22:00.282Z,98.60
2023-05-21T20:24:28.312Z,97.87
2023-05-21T20:26:56.268Z,95.52
2023-05-21T20:29:24.280Z,94.47
2023-05-21T20:31:52.206Z,93.59
2023-05-21T20:34:21.649Z,92.99
2023-05-21T20:36:49.660Z,94.50
2023-05-21T20:39:21.940Z,96.00
2023-05-21T20:41:49.924Z,96.67
2023-05-21T20:44:18.925Z,97.12
2023-05-21T20:46:47.805Z,97.61
2023-05-21T20:49:17.742Z,97.55
2023-05-21T20:51:45.852Z,97.50
2023-05-21T20:54:14.143Z,98.46
2023-05-21T20:56:45.135Z,98.09
2023-05-21T20:59:13.061Z,97.34
2023-05-21T21:01:41.448Z,97.35
2023-05-21T21:04:10.026Z,97.96
2023-05-21T21:06:38.464Z,98.67
2023-05-21T21:09:06.554Z,97.95
2023-05-21T21:11:34.633Z,98.61
2023-05-21T21:14:03.985Z,98.82
2023-05-21T21:16:32.108Z,98.58
2023-05-21T21:19:00.129Z,98.93
2023-05-21T21:21:28.636Z,99.06
2023-05-21T21:23:56.649Z,98.45
2023-05-21T21:26:24.996Z,98.71
2023-05-21T21:28:52.943Z,98.97
2023-05-21T21:31:22.436Z,98.83
2023-05-21T21:33:50.519Z,98.37
2023-05-21T21:36:18.550Z,98.88
2023-05-21T21:38:46.497Z,99.88
2023-05-21T21:41:14.573Z,100.00
2023-05-21T21:43:42.568Z,99.70
2023-05-21T21:46:10.563Z,99.26
2023-05-21T21:48:39.914Z,98.23
2023-05-21T21:51:09.005Z,100.00
2023-05-21T21:53:36.935Z,99.87
2023-05-21T21:56:05.128Z,100.00
2023-05-21T21:58:33.061Z,100.00
2023-05-21T22:01:01.248Z,100.00
2023-05-21T22:03:29.713Z,100.00
2023-05-21T22:05:59.066Z,100.00
2023-05-21T22:08:28.707Z,100.00
2023-05-21T22:10:56.761Z,100.00
2023-05-21T22:13:24.779Z,100.00
2023-05-21T22:15:52.736Z,100.00
2023-05-21T22:18:28.451Z,100.00
2023-05-21T22:21:01.984Z,100.00
2023-05-21T22:23:48.367Z,100.00
2023-05-21T22:26:16.301Z,100.00
2023-05-21T22:28:44.181Z,100.00
2023-05-21T22:31:12.130Z,100.00
2023-05-21T22:33:40.344Z,100.00
2023-05-21T22:36:10.485Z,100.00
2023-05-21T22:38:38.865Z,100.00
2023-05-21T22:41:06.885Z,100.00
2023-05-21T22:43:35.719Z,100.00
2023-05-21T22:46:03.785Z,100.00
2023-05-21T22:48:31.732Z,100.00
2023-05-21T22:51:01.674Z,100.00
2023-05-21T22:53:32.188Z,100.00
2023-05-21T22:56:00.150Z,100.00
2023-05-21T22:58:28.035Z,100.00
2023-05-21T23:00:56.050Z,100.00
2023-05-21T23:03:23.960Z,100.00
2023-05-21T23:05:51.918Z,100.00
2023-05-21T23:08:19.988Z,100.00
2023-05-21T23:10:49.327Z,100.00
2023-05-21T23:13:17.266Z,100.00
2023-05-21T23:15:45.806Z,100.00
2023-05-21T23:18:13.772Z,100.00
2023-05-21T23:20:42.242Z,100.00
2023-05-21T23:23:10.613Z,100.00
2023-05-21T23:25:38.597Z,100.00
2023-05-21T23:28:07.987Z,100.00
2023-05-21T23:30:36.247Z,100.00
2023-05-21T23:33:04.636Z,100.00
2023-05-21T23:35:32.616Z,100.00
2023-05-21T23:38:01.140Z,100.00
2023-05-21T23:40:29.110Z,100.00
2023-05-21T23:42:57.108Z,100.00
2023-05-21T23:45:26.465Z,100.00
2023-05-21T23:47:54.466Z,100.00
2023-05-21T23:50:22.500Z,100.00
2023-05-21T23:52:50.481Z,100.00
2023-05-21T23:55:18.632Z,100.00
2023-05-21T23:57:46.671Z,100.00
